sensor_id;sensor_type;location;lat;lon;timestamp;temperature;humidity
21393;DHT22;10857;52.228;21.026;2023-12-07T00:02:05;0.60;99.90
21393;DHT22;10857;52.228;21.026;2023-12-07T00:04:32;0.60;99.90
21393;DHT22;10857;52.228;21.026;2023-12-07T00:06:59;0.60;99.90
21393;DHT22;10857;52.228;21.026;2023-12-07T00:09:26;0.70;99.90
21393;DHT22;10857;52.228;21.026;2023-12-07T00:11:53;0.60;99.90
21393;DHT22;10857;52.228;21.026;2023-12-07T00:14:20;0.60;99.90
21393;DHT22;10857;52.228;21.026;2023-12-07T00:16:48;0.60;99.90
21393;DHT22;10857;52.228;21.026;2023-12-07T00:19:15;0.60;99.90
21393;DHT22;10857;52.228;21.026;2023-12-07T00:21:43;0.70;99.90
21393;DHT22;10857;52.228;21.026;2023-12-07T00:24:10;0.60;99.90
21393;DHT22;10857;52.228;21.026;2023-12-07T00:26:37;0.70;99.90
21393;DHT22;10857;52.228;21.026;2023-12-07T00:29:05;0.70;99.90
21393;DHT22;10857;52.228;21.026;2023-12-07T00:31:32;0.60;99.90
21393;DHT22;10857;52.228;21.026;2023-12-07T00:33:59;0.70;99.90
21393;DHT22;10857;52.228;21.026;2023-12-07T00:36:26;0.70;99.90
21393;DHT22;10857;52.228;21.026;2023-12-07T00:38:53;0.70;99.90
21393;DHT22;10857;52.228;21.026;2023-12-07T00:41:20;0.70;99.90
21393;DHT22;10857;52.228;21.026;2023-12-07T00:43:47;0.70;99.90
21393;DHT22;10857;52.228;21.026;2023-12-07T00:46:14;0.70;99.90
21393;DHT22;10857;52.228;21.026;2023-12-07T00:48:41;0.70;99.90
21393;DHT22;10857;52.228;21.026;2023-12-07T00:51:09;0.60;99.90
21393;DHT22;10857;52.228;21.026;2023-12-07T00:53:36;0.60;99.90
21393;DHT22;10857;52.228;21.026;2023-12-07T00:56:04;0.70;99.90
21393;DHT22;10857;52.228;21.026;2023-12-07T00:58:31;0.70;99.90
21393;DHT22;10857;52.228;21.026;2023-12-07T01:00:58;0.70;99.90
21393;DHT22;10857;52.228;21.026;2023-12-07T01:03:26;0.80;99.90
21393;DHT22;10857;52.228;21.026;2023-12-07T01:05:53;0.80;99.90
21393;DHT22;10857;52.228;21.026;2023-12-07T01:08:20;0.80;99.90
21393;DHT22;10857;52.228;21.026;2023-12-07T01:10:47;0.70;99.90
21393;DHT22;10857;52.228;21.026;2023-12-07T01:13:14;0.80;99.90
21393;DHT22;10857;52.228;21.026;2023-12-07T01:15:41;0.70;99.90
21393;DHT22;10857;52.228;21.026;2023-12-07T01:18:08;0.70;99.90
21393;DHT22;10857;52.228;21.026;2023-12-07T01:20:35;0.70;99.90
21393;DHT22;10857;52.228;21.026;2023-12-07T01:23:02;0.70;99.90
21393;DHT22;10857;52.228;21.026;2023-12-07T01:25:29;0.70;99.90
21393;DHT22;10857;52.228;21.026;2023-12-07T01:27:56;0.60;99.90
21393;DHT22;10857;52.228;21.026;2023-12-07T01:30:23;0.70;99.90
21393;DHT22;10857;52.228;21.026;2023-12-07T01:32:50;0.70;99.90
21393;DHT22;10857;52.228;21.026;2023-12-07T01:35:18;0.80;99.90
21393;DHT22;10857;52.228;21.026;2023-12-07T01:37:45;0.80;99.90
21393;DHT22;10857;52.228;21.026;2023-12-07T01:40:12;0.80;99.90
21393;DHT22;10857;52.228;21.026;2023-12-07T01:42:50;0.70;99.90
21393;DHT22;10857;52.228;21.026;2023-12-07T01:45:18;0.70;99.90
21393;DHT22;10857;52.228;21.026;2023-12-07T01:47:47;0.70;99.90
21393;DHT22;10857;52.228;21.026;2023-12-07T01:50:17;0.70;99.90
21393;DHT22;10857;52.228;21.026;2023-12-07T01:52:54;0.70;99.90
21393;DHT22;10857;52.228;21.026;2023-12-07T01:55:22;0.70;99.90
21393;DHT22;10857;52.228;21.026;2023-12-07T01:57:49;0.70;99.90
21393;DHT22;10857;52.228;21.026;2023-12-07T02:00:17;0.80;99.90
21393;DHT22;10857;52.228;21.026;2023-12-07T02:02:45;0.80;99.90
21393;DHT22;10857;52.228;21.026;2023-12-07T02:05:14;0.80;99.90
21393;DHT22;10857;52.228;21.026;2023-12-07T02:07:41;0.80;99.90
21393;DHT22;10857;52.228;21.026;2023-12-07T02:10:10;0.90;99.90
21393;DHT22;10857;52.228;21.026;2023-12-07T02:12:38;0.90;99.90
21393;DHT22;10857;52.228;21.026;2023-12-07T02:15:05;0.90;99.90
21393;DHT22;10857;52.228;21.026;2023-12-07T02:17:35;0.90;99.90
21393;DHT22;10857;52.228;21.026;2023-12-07T02:22:53;0.80;99.90
21393;DHT22;10857;52.228;21.026;2023-12-07T02:25:26;0.90;99.90
21393;DHT22;10857;52.228;21.026;2023-12-07T02:27:56;0.90;99.90
21393;DHT22;10857;52.228;21.026;2023-12-07T02:30:23;0.90;99.90
21393;DHT22;10857;52.228;21.026;2023-12-07T02:32:50;0.90;99.90
21393;DHT22;10857;52.228;21.026;2023-12-07T02:35:17;0.90;99.90
21393;DHT22;10857;52.228;21.026;2023-12-07T02:37:51;0.90;99.90
21393;DHT22;10857;52.228;21.026;2023-12-07T02:40:24;0.90;99.90
21393;DHT22;10857;52.228;21.026;2023-12-07T02:42:56;0.90;99.90
21393;DHT22;10857;52.228;21.026;2023-12-07T02:45:23;0.90;99.90
21393;DHT22;10857;52.228;21.026;2023-12-07T02:47:50;0.90;99.90
21393;DHT22;10857;52.228;21.026;2023-12-07T02:50:18;0.90;99.90
21393;DHT22;10857;52.228;21.026;2023-12-07T02:52:45;0.90;99.90
21393;DHT22;10857;52.228;21.026;2023-12-07T02:55:12;0.90;99.90
21393;DHT22;10857;52.228;21.026;2023-12-07T02:57:39;1.00;99.90
21393;DHT22;10857;52.228;21.026;2023-12-07T03:00:07;1.00;99.90
21393;DHT22;10857;52.228;21.026;2023-12-07T03:02:35;1.00;99.90
21393;DHT22;10857;52.228;21.026;2023-12-07T03:05:03;0.90;99.90
21393;DHT22;10857;52.228;21.026;2023-12-07T03:07:31;0.90;99.90
21393;DHT22;10857;52.228;21.026;2023-12-07T03:09:58;0.90;99.90
21393;DHT22;10857;52.228;21.026;2023-12-07T03:12:25;0.90;99.90
21393;DHT22;10857;52.228;21.026;2023-12-07T03:14:52;0.90;99.90
21393;DHT22;10857;52.228;21.026;2023-12-07T03:17:19;0.90;99.90
21393;DHT22;10857;52.228;21.026;2023-12-07T03:19:46;0.90;99.90
21393;DHT22;10857;52.228;21.026;2023-12-07T03:22:13;0.90;99.90
21393;DHT22;10857;52.228;21.026;2023-12-07T03:24:45;0.90;99.90
21393;DHT22;10857;52.228;21.026;2023-12-07T03:27:13;1.00;99.90
21393;DHT22;10857;52.228;21.026;2023-12-07T03:29:40;1.00;99.90
21393;DHT22;10857;52.228;21.026;2023-12-07T03:32:07;1.00;99.90
21393;DHT22;10857;52.228;21.026;2023-12-07T03:34:35;1.00;99.90
21393;DHT22;10857;52.228;21.026;2023-12-07T03:37:02;1.00;99.90
21393;DHT22;10857;52.228;21.026;2023-12-07T03:39:30;1.00;99.90
21393;DHT22;10857;52.228;21.026;2023-12-07T03:42:00;1.00;99.90
21393;DHT22;10857;52.228;21.026;2023-12-07T03:44:27;1.00;99.90
21393;DHT22;10857;52.228;21.026;2023-12-07T03:46:54;1.00;99.90
21393;DHT22;10857;52.228;21.026;2023-12-07T03:49:22;1.00;99.90
21393;DHT22;10857;52.228;21.026;2023-12-07T03:51:49;1.00;99.90
21393;DHT22;10857;52.228;21.026;2023-12-07T03:54:16;1.00;99.90
21393;DHT22;10857;52.228;21.026;2023-12-07T03:56:43;1.00;99.90
21393;DHT22;10857;52.228;21.026;2023-12-07T03:59:10;1.00;99.90
21393;DHT22;10857;52.228;21.026;2023-12-07T04:01:37;1.00;99.90
21393;DHT22;10857;52.228;21.026;2023-12-07T04:04:04;1.00;99.90
21393;DHT22;10857;52.228;21.026;2023-12-07T04:06:32;1.00;99.90
21393;DHT22;10857;52.228;21.026;2023-12-07T04:08:59;1.00;99.90
21393;DHT22;10857;52.228;21.026;2023-12-07T04:11:26;1.00;99.90
21393;DHT22;10857;52.228;21.026;2023-12-07T04:13:53;1.00;99.90
21393;DHT22;10857;52.228;21.026;2023-12-07T04:16:20;1.00;99.90
21393;DHT22;10857;52.228;21.026;2023-12-07T04:18:49;1.00;99.90
21393;DHT22;10857;52.228;21.026;2023-12-07T04:21:16;1.00;99.90
21393;DHT22;10857;52.228;21.026;2023-12-07T04:23:43;1.00;99.90
21393;DHT22;10857;52.228;21.026;2023-12-07T04:26:10;1.00;99.90
21393;DHT22;10857;52.228;21.026;2023-12-07T04:28:37;1.00;99.90
21393;DHT22;10857;52.228;21.026;2023-12-07T04:31:04;1.00;99.90
21393;DHT22;10857;52.228;21.026;2023-12-07T04:33:32;1.00;99.90
21393;DHT22;10857;52.228;21.026;2023-12-07T04:35:59;1.00;99.90
21393;DHT22;10857;52.228;21.026;2023-12-07T04:38:26;1.00;99.90
21393;DHT22;10857;52.228;21.026;2023-12-07T04:40:53;1.00;99.90
21393;DHT22;10857;52.228;21.026;2023-12-07T04:43:20;1.10;99.90
21393;DHT22;10857;52.228;21.026;2023-12-07T04:45:47;1.10;99.90
21393;DHT22;10857;52.228;21.026;2023-12-07T04:48:14;1.10;99.90
21393;DHT22;10857;52.228;21.026;2023-12-07T04:50:42;1.10;99.90
21393;DHT22;10857;52.228;21.026;2023-12-07T04:53:09;1.10;99.90
21393;DHT22;10857;52.228;21.026;2023-12-07T04:55:36;1.10;99.90
21393;DHT22;10857;52.228;21.026;2023-12-07T04:58:03;1.10;99.90
21393;DHT22;10857;52.228;21.026;2023-12-07T05:00:30;1.10;99.90
21393;DHT22;10857;52.228;21.026;2023-12-07T05:02:57;1.10;99.90
21393;DHT22;10857;52.228;21.026;2023-12-07T05:05:25;1.10;99.90
21393;DHT22;10857;52.228;21.026;2023-12-07T05:07:52;1.00;99.90
21393;DHT22;10857;52.228;21.026;2023-12-07T05:10:19;1.00;99.90
21393;DHT22;10857;52.228;21.026;2023-12-07T05:12:46;1.00;99.90
21393;DHT22;10857;52.228;21.026;2023-12-07T05:15:13;1.00;99.90
21393;DHT22;10857;52.228;21.026;2023-12-07T05:17:40;1.00;99.90
21393;DHT22;10857;52.228;21.026;2023-12-07T05:20:08;1.00;99.90
21393;DHT22;10857;52.228;21.026;2023-12-07T05:22:35;1.00;99.90
21393;DHT22;10857;52.228;21.026;2023-12-07T05:25:02;1.00;99.90
21393;DHT22;10857;52.228;21.026;2023-12-07T05:27:29;1.10;99.90
21393;DHT22;10857;52.228;21.026;2023-12-07T05:29:57;1.10;99.90
21393;DHT22;10857;52.228;21.026;2023-12-07T05:32:24;1.10;99.90
21393;DHT22;10857;52.228;21.026;2023-12-07T05:34:51;1.20;99.90
21393;DHT22;10857;52.228;21.026;2023-12-07T05:37:18;1.10;99.90
21393;DHT22;10857;52.228;21.026;2023-12-07T05:39:45;1.10;99.90
21393;DHT22;10857;52.228;21.026;2023-12-07T05:42:12;1.10;99.90
21393;DHT22;10857;52.228;21.026;2023-12-07T05:44:39;1.10;99.90
21393;DHT22;10857;52.228;21.026;2023-12-07T05:47:06;1.00;99.90
21393;DHT22;10857;52.228;21.026;2023-12-07T05:49:34;1.00;99.90
21393;DHT22;10857;52.228;21.026;2023-12-07T05:52:02;1.10;99.90
21393;DHT22;10857;52.228;21.026;2023-12-07T05:54:29;1.00;99.90
21393;DHT22;10857;52.228;21.026;2023-12-07T05:56:56;1.10;99.90
21393;DHT22;10857;52.228;21.026;2023-12-07T05:59:23;1.10;99.90
21393;DHT22;10857;52.228;21.026;2023-12-07T06:01:54;1.10;99.90
21393;DHT22;10857;52.228;21.026;2023-12-07T06:04:21;1.10;99.90
21393;DHT22;10857;52.228;21.026;2023-12-07T06:06:48;1.10;99.90
21393;DHT22;10857;52.228;21.026;2023-12-07T06:09:16;1.00;99.90
21393;DHT22;10857;52.228;21.026;2023-12-07T06:11:42;1.10;99.90
21393;DHT22;10857;52.228;21.026;2023-12-07T06:14:09;1.20;99.90
21393;DHT22;10857;52.228;21.026;2023-12-07T06:16:36;1.20;99.90
21393;DHT22;10857;52.228;21.026;2023-12-07T06:19:04;1.20;99.90
21393;DHT22;10857;52.228;21.026;2023-12-07T06:21:32;1.10;99.90
21393;DHT22;10857;52.228;21.026;2023-12-07T06:24:00;1.20;99.90
21393;DHT22;10857;52.228;21.026;2023-12-07T06:26:27;1.20;99.90
21393;DHT22;10857;52.228;21.026;2023-12-07T06:28:54;1.20;99.90
21393;DHT22;10857;52.228;21.026;2023-12-07T06:31:21;1.20;99.90
21393;DHT22;10857;52.228;21.026;2023-12-07T06:33:49;1.20;99.90
21393;DHT22;10857;52.228;21.026;2023-12-07T06:36:21;1.20;99.90
21393;DHT22;10857;52.228;21.026;2023-12-07T06:38:48;1.20;99.90
21393;DHT22;10857;52.228;21.026;2023-12-07T06:41:15;1.20;99.90
21393;DHT22;10857;52.228;21.026;2023-12-07T06:43:43;1.20;99.90
21393;DHT22;10857;52.228;21.026;2023-12-07T06:46:14;1.20;99.90
21393;DHT22;10857;52.228;21.026;2023-12-07T06:48:43;1.20;99.90
21393;DHT22;10857;52.228;21.026;2023-12-07T06:51:11;1.30;99.90
21393;DHT22;10857;52.228;21.026;2023-12-07T06:53:39;1.20;99.90
21393;DHT22;10857;52.228;21.026;2023-12-07T06:56:08;1.20;99.90
21393;DHT22;10857;52.228;21.026;2023-12-07T06:58:35;1.20;99.90
21393;DHT22;10857;52.228;21.026;2023-12-07T07:01:02;1.30;99.90
21393;DHT22;10857;52.228;21.026;2023-12-07T07:03:29;1.30;99.90
21393;DHT22;10857;52.228;21.026;2023-12-07T07:05:57;1.30;99.90
21393;DHT22;10857;52.228;21.026;2023-12-07T07:08:26;1.30;99.90
21393;DHT22;10857;52.228;21.026;2023-12-07T07:10:53;1.30;99.90
21393;DHT22;10857;52.228;21.026;2023-12-07T07:13:20;1.30;99.90
21393;DHT22;10857;52.228;21.026;2023-12-07T07:15:47;1.30;99.90
21393;DHT22;10857;52.228;21.026;2023-12-07T07:18:14;1.30;99.90
21393;DHT22;10857;52.228;21.026;2023-12-07T07:20:42;1.40;99.90
21393;DHT22;10857;52.228;21.026;2023-12-07T07:23:09;1.40;99.90
21393;DHT22;10857;52.228;21.026;2023-12-07T07:25:37;1.40;99.90
21393;DHT22;10857;52.228;21.026;2023-12-07T07:28:05;1.40;99.90
21393;DHT22;10857;52.228;21.026;2023-12-07T07:30:33;1.40;99.90
21393;DHT22;10857;52.228;21.026;2023-12-07T07:33:00;1.40;99.90
21393;DHT22;10857;52.228;21.026;2023-12-07T07:35:28;1.40;99.90
21393;DHT22;10857;52.228;21.026;2023-12-07T07:37:56;1.40;99.90
21393;DHT22;10857;52.228;21.026;2023-12-07T07:40:23;1.50;99.90
21393;DHT22;10857;52.228;21.026;2023-12-07T07:42:52;1.50;99.90
21393;DHT22;10857;52.228;21.026;2023-12-07T07:45:19;1.50;99.90
21393;DHT22;10857;52.228;21.026;2023-12-07T07:47:46;1.50;99.90
21393;DHT22;10857;52.228;21.026;2023-12-07T07:50:13;1.50;99.90
21393;DHT22;10857;52.228;21.026;2023-12-07T07:52:40;1.50;99.90
21393;DHT22;10857;52.228;21.026;2023-12-07T07:55:08;1.60;99.90
21393;DHT22;10857;52.228;21.026;2023-12-07T07:57:35;1.50;99.90
21393;DHT22;10857;52.228;21.026;2023-12-07T08:00:02;1.50;99.90
21393;DHT22;10857;52.228;21.026;2023-12-07T08:02:32;1.50;99.90
21393;DHT22;10857;52.228;21.026;2023-12-07T08:04:59;1.50;99.90
21393;DHT22;10857;52.228;21.026;2023-12-07T08:07:26;1.50;99.90
21393;DHT22;10857;52.228;21.026;2023-12-07T08:09:53;1.50;99.90
21393;DHT22;10857;52.228;21.026;2023-12-07T08:12:20;1.50;99.90
21393;DHT22;10857;52.228;21.026;2023-12-07T08:14:50;1.60;99.90
21393;DHT22;10857;52.228;21.026;2023-12-07T08:17:17;1.60;99.90
21393;DHT22;10857;52.228;21.026;2023-12-07T08:19:46;1.60;99.90
21393;DHT22;10857;52.228;21.026;2023-12-07T08:22:14;1.60;99.90
21393;DHT22;10857;52.228;21.026;2023-12-07T08:24:42;1.70;99.90
21393;DHT22;10857;52.228;21.026;2023-12-07T08:27:12;1.70;99.90
21393;DHT22;10857;52.228;21.026;2023-12-07T08:29:39;1.70;99.90
21393;DHT22;10857;52.228;21.026;2023-12-07T08:32:07;1.70;99.90
21393;DHT22;10857;52.228;21.026;2023-12-07T08:34:34;1.80;99.90
21393;DHT22;10857;52.228;21.026;2023-12-07T08:37:01;1.80;99.90
21393;DHT22;10857;52.228;21.026;2023-12-07T08:39:30;1.80;99.90
21393;DHT22;10857;52.228;21.026;2023-12-07T08:41:57;1.80;99.90
21393;DHT22;10857;52.228;21.026;2023-12-07T08:44:24;1.80;99.90
21393;DHT22;10857;52.228;21.026;2023-12-07T08:46:51;1.80;99.90
21393;DHT22;10857;52.228;21.026;2023-12-07T08:49:18;1.80;99.90
21393;DHT22;10857;52.228;21.026;2023-12-07T08:51:45;1.80;99.90
21393;DHT22;10857;52.228;21.026;2023-12-07T08:54:32;1.80;99.90
21393;DHT22;10857;52.228;21.026;2023-12-07T08:57:00;1.70;99.90
21393;DHT22;10857;52.228;21.026;2023-12-07T08:59:27;1.80;99.90
21393;DHT22;10857;52.228;21.026;2023-12-07T09:01:54;1.70;99.90
21393;DHT22;10857;52.228;21.026;2023-12-07T09:04:21;1.60;99.90
21393;DHT22;10857;52.228;21.026;2023-12-07T09:06:49;1.70;99.90
21393;DHT22;10857;52.228;21.026;2023-12-07T09:09:16;1.60;99.90
21393;DHT22;10857;52.228;21.026;2023-12-07T09:11:43;1.60;99.90
21393;DHT22;10857;52.228;21.026;2023-12-07T09:14:10;1.60;99.90
21393;DHT22;10857;52.228;21.026;2023-12-07T09:16:44;1.60;99.90
21393;DHT22;10857;52.228;21.026;2023-12-07T09:19:12;1.60;99.90
21393;DHT22;10857;52.228;21.026;2023-12-07T09:21:41;1.60;99.90
21393;DHT22;10857;52.228;21.026;2023-12-07T09:24:08;1.60;99.90
21393;DHT22;10857;52.228;21.026;2023-12-07T09:26:35;1.60;99.90
21393;DHT22;10857;52.228;21.026;2023-12-07T09:29:04;1.60;99.90
21393;DHT22;10857;52.228;21.026;2023-12-07T09:31:31;1.60;99.90
21393;DHT22;10857;52.228;21.026;2023-12-07T09:33:58;1.60;99.90
21393;DHT22;10857;52.228;21.026;2023-12-07T09:36:38;1.60;99.90
21393;DHT22;10857;52.228;21.026;2023-12-07T09:39:05;1.60;99.90
21393;DHT22;10857;52.228;21.026;2023-12-07T09:41:33;1.70;99.90
21393;DHT22;10857;52.228;21.026;2023-12-07T09:44:00;1.70;99.90
21393;DHT22;10857;52.228;21.026;2023-12-07T09:46:28;1.70;99.90
21393;DHT22;10857;52.228;21.026;2023-12-07T09:48:56;1.70;99.90
21393;DHT22;10857;52.228;21.026;2023-12-07T09:51:23;1.70;99.90
21393;DHT22;10857;52.228;21.026;2023-12-07T09:53:53;1.80;99.90
21393;DHT22;10857;52.228;21.026;2023-12-07T09:56:21;1.80;99.90
21393;DHT22;10857;52.228;21.026;2023-12-07T09:58:48;1.90;99.90
21393;DHT22;10857;52.228;21.026;2023-12-07T10:01:15;1.80;99.90
21393;DHT22;10857;52.228;21.026;2023-12-07T10:03:43;1.90;99.90
21393;DHT22;10857;52.228;21.026;2023-12-07T10:06:11;2.00;99.90
21393;DHT22;10857;52.228;21.026;2023-12-07T10:08:38;2.00;99.90
21393;DHT22;10857;52.228;21.026;2023-12-07T10:11:09;2.10;99.90
21393;DHT22;10857;52.228;21.026;2023-12-07T10:13:37;2.00;99.90
21393;DHT22;10857;52.228;21.026;2023-12-07T10:18:33;1.90;99.90
21393;DHT22;10857;52.228;21.026;2023-12-07T10:21:00;1.90;99.90
21393;DHT22;10857;52.228;21.026;2023-12-07T10:23:28;1.90;99.90
21393;DHT22;10857;52.228;21.026;2023-12-07T10:25:55;1.90;99.90
21393;DHT22;10857;52.228;21.026;2023-12-07T10:28:22;1.90;99.90
21393;DHT22;10857;52.228;21.026;2023-12-07T10:30:50;1.90;99.90
21393;DHT22;10857;52.228;21.026;2023-12-07T10:33:19;1.80;99.90
21393;DHT22;10857;52.228;21.026;2023-12-07T10:35:47;1.90;99.90
21393;DHT22;10857;52.228;21.026;2023-12-07T10:38:17;1.90;99.90
21393;DHT22;10857;52.228;21.026;2023-12-07T10:40:46;2.10;99.90
21393;DHT22;10857;52.228;21.026;2023-12-07T10:43:15;2.00;99.90
21393;DHT22;10857;52.228;21.026;2023-12-07T10:45:45;1.90;99.90
21393;DHT22;10857;52.228;21.026;2023-12-07T10:48:14;1.80;99.90
21393;DHT22;10857;52.228;21.026;2023-12-07T10:50:42;1.80;99.90
21393;DHT22;10857;52.228;21.026;2023-12-07T10:53:25;1.80;99.90
21393;DHT22;10857;52.228;21.026;2023-12-07T10:56:00;1.80;99.90
21393;DHT22;10857;52.228;21.026;2023-12-07T10:58:27;1.80;99.90
21393;DHT22;10857;52.228;21.026;2023-12-07T11:00:57;1.80;99.90
21393;DHT22;10857;52.228;21.026;2023-12-07T11:03:25;1.80;99.90
21393;DHT22;10857;52.228;21.026;2023-12-07T11:05:53;1.70;99.90
21393;DHT22;10857;52.228;21.026;2023-12-07T11:08:41;1.80;99.90
21393;DHT22;10857;52.228;21.026;2023-12-07T11:14:07;1.80;99.90
21393;DHT22;10857;52.228;21.026;2023-12-07T11:16:43;1.70;99.90
21393;DHT22;10857;52.228;21.026;2023-12-07T11:22:01;1.60;99.90
21393;DHT22;10857;52.228;21.026;2023-12-07T11:24:28;1.60;99.90
21393;DHT22;10857;52.228;21.026;2023-12-07T11:26:56;1.60;99.90
21393;DHT22;10857;52.228;21.026;2023-12-07T11:29:29;1.60;99.90
21393;DHT22;10857;52.228;21.026;2023-12-07T11:32:05;1.60;99.90
21393;DHT22;10857;52.228;21.026;2023-12-07T11:34:45;1.70;99.90
21393;DHT22;10857;52.228;21.026;2023-12-07T11:37:15;1.80;99.90
21393;DHT22;10857;52.228;21.026;2023-12-07T11:39:45;1.80;99.90
21393;DHT22;10857;52.228;21.026;2023-12-07T11:42:16;1.70;99.90
21393;DHT22;10857;52.228;21.026;2023-12-07T11:44:44;1.70;99.90
21393;DHT22;10857;52.228;21.026;2023-12-07T11:47:20;1.70;99.90
21393;DHT22;10857;52.228;21.026;2023-12-07T11:49:48;1.60;99.90
21393;DHT22;10857;52.228;21.026;2023-12-07T11:52:19;1.50;99.90
21393;DHT22;10857;52.228;21.026;2023-12-07T11:54:48;1.50;99.90
21393;DHT22;10857;52.228;21.026;2023-12-07T11:57:16;1.50;99.90
21393;DHT22;10857;52.228;21.026;2023-12-07T11:59:44;1.60;99.90
21393;DHT22;10857;52.228;21.026;2023-12-07T12:02:12;1.50;99.90
21393;DHT22;10857;52.228;21.026;2023-12-07T12:04:43;1.60;99.90
21393;DHT22;10857;52.228;21.026;2023-12-07T12:07:11;1.50;99.90
21393;DHT22;10857;52.228;21.026;2023-12-07T12:09:38;1.50;99.90
21393;DHT22;10857;52.228;21.026;2023-12-07T12:12:05;1.60;99.90
21393;DHT22;10857;52.228;21.026;2023-12-07T12:14:33;1.50;99.90
21393;DHT22;10857;52.228;21.026;2023-12-07T12:17:00;1.50;99.90
21393;DHT22;10857;52.228;21.026;2023-12-07T12:19:27;1.50;99.90
21393;DHT22;10857;52.228;21.026;2023-12-07T12:22:03;1.60;99.90
21393;DHT22;10857;52.228;21.026;2023-12-07T12:24:35;1.60;99.90
21393;DHT22;10857;52.228;21.026;2023-12-07T12:27:03;1.60;99.90
21393;DHT22;10857;52.228;21.026;2023-12-07T12:29:32;1.50;99.90
21393;DHT22;10857;52.228;21.026;2023-12-07T12:32:02;1.40;99.90
21393;DHT22;10857;52.228;21.026;2023-12-07T12:34:32;1.40;99.90
21393;DHT22;10857;52.228;21.026;2023-12-07T12:37:00;1.50;99.90
21393;DHT22;10857;52.228;21.026;2023-12-07T12:39:29;1.50;99.90
21393;DHT22;10857;52.228;21.026;2023-12-07T12:42:02;1.40;99.90
21393;DHT22;10857;52.228;21.026;2023-12-07T12:44:30;1.40;99.90
21393;DHT22;10857;52.228;21.026;2023-12-07T12:47:07;1.30;99.90
21393;DHT22;10857;52.228;21.026;2023-12-07T12:49:41;1.30;99.90
21393;DHT22;10857;52.228;21.026;2023-12-07T12:52:15;1.20;99.90
21393;DHT22;10857;52.228;21.026;2023-12-07T12:54:44;1.30;99.90
21393;DHT22;10857;52.228;21.026;2023-12-07T12:57:11;1.30;99.90
21393;DHT22;10857;52.228;21.026;2023-12-07T12:59:38;1.30;99.90
21393;DHT22;10857;52.228;21.026;2023-12-07T13:02:05;1.30;99.90
21393;DHT22;10857;52.228;21.026;2023-12-07T13:04:33;1.30;99.90
21393;DHT22;10857;52.228;21.026;2023-12-07T13:07:04;1.20;99.90
21393;DHT22;10857;52.228;21.026;2023-12-07T13:09:31;1.30;99.90
21393;DHT22;10857;52.228;21.026;2023-12-07T13:11:58;1.20;99.90
21393;DHT22;10857;52.228;21.026;2023-12-07T13:14:29;1.20;99.90
21393;DHT22;10857;52.228;21.026;2023-12-07T13:16:58;1.20;99.90
21393;DHT22;10857;52.228;21.026;2023-12-07T13:19:25;1.20;99.90
21393;DHT22;10857;52.228;21.026;2023-12-07T13:21:52;1.30;99.90
21393;DHT22;10857;52.228;21.026;2023-12-07T13:24:19;1.30;99.90
21393;DHT22;10857;52.228;21.026;2023-12-07T13:26:48;1.30;99.90
21393;DHT22;10857;52.228;21.026;2023-12-07T13:29:15;1.30;99.90
21393;DHT22;10857;52.228;21.026;2023-12-07T13:31:54;1.20;99.90
21393;DHT22;10857;52.228;21.026;2023-12-07T13:34:21;1.10;99.90
21393;DHT22;10857;52.228;21.026;2023-12-07T13:36:50;1.20;99.90
21393;DHT22;10857;52.228;21.026;2023-12-07T13:39:17;1.20;99.90
21393;DHT22;10857;52.228;21.026;2023-12-07T13:41:57;1.20;99.90
21393;DHT22;10857;52.228;21.026;2023-12-07T13:44:26;1.20;99.90
21393;DHT22;10857;52.228;21.026;2023-12-07T13:46:55;1.10;99.90
21393;DHT22;10857;52.228;21.026;2023-12-07T13:49:24;1.10;99.90
21393;DHT22;10857;52.228;21.026;2023-12-07T13:52:00;1.10;99.90
21393;DHT22;10857;52.228;21.026;2023-12-07T13:54:35;1.20;99.90
21393;DHT22;10857;52.228;21.026;2023-12-07T13:57:05;1.20;99.90
21393;DHT22;10857;52.228;21.026;2023-12-07T13:59:35;1.10;99.90
21393;DHT22;10857;52.228;21.026;2023-12-07T14:02:04;1.20;99.90
21393;DHT22;10857;52.228;21.026;2023-12-07T14:04:32;1.20;99.90
21393;DHT22;10857;52.228;21.026;2023-12-07T14:07:09;1.20;99.90
21393;DHT22;10857;52.228;21.026;2023-12-07T14:09:40;1.20;99.90
21393;DHT22;10857;52.228;21.026;2023-12-07T14:12:22;1.20;99.90
21393;DHT22;10857;52.228;21.026;2023-12-07T14:14:50;1.10;99.90
21393;DHT22;10857;52.228;21.026;2023-12-07T14:17:17;1.10;99.90
21393;DHT22;10857;52.228;21.026;2023-12-07T14:19:53;1.10;99.90
21393;DHT22;10857;52.228;21.026;2023-12-07T14:22:36;1.20;99.90
21393;DHT22;10857;52.228;21.026;2023-12-07T14:25:04;1.20;99.90
21393;DHT22;10857;52.228;21.026;2023-12-07T14:27:31;1.20;99.90
21393;DHT22;10857;52.228;21.026;2023-12-07T14:29:58;1.10;99.90
21393;DHT22;10857;52.228;21.026;2023-12-07T14:32:26;1.20;99.90
21393;DHT22;10857;52.228;21.026;2023-12-07T14:34:54;1.20;99.90
21393;DHT22;10857;52.228;21.026;2023-12-07T14:37:21;1.10;99.90
21393;DHT22;10857;52.228;21.026;2023-12-07T14:39:48;1.10;99.90
21393;DHT22;10857;52.228;21.026;2023-12-07T14:42:15;1.10;99.90
21393;DHT22;10857;52.228;21.026;2023-12-07T14:44:43;1.00;99.90
21393;DHT22;10857;52.228;21.026;2023-12-07T14:47:10;1.00;99.90
21393;DHT22;10857;52.228;21.026;2023-12-07T14:49:37;1.00;99.90
21393;DHT22;10857;52.228;21.026;2023-12-07T14:52:05;1.00;99.90
21393;DHT22;10857;52.228;21.026;2023-12-07T14:54:32;1.10;99.90
21393;DHT22;10857;52.228;21.026;2023-12-07T14:56:59;1.10;99.90
21393;DHT22;10857;52.228;21.026;2023-12-07T14:59:28;1.00;99.90
21393;DHT22;10857;52.228;21.026;2023-12-07T15:01:56;1.00;99.90
21393;DHT22;10857;52.228;21.026;2023-12-07T15:04:23;1.00;99.90
21393;DHT22;10857;52.228;21.026;2023-12-07T15:07:00;1.10;99.90
21393;DHT22;10857;52.228;21.026;2023-12-07T15:09:27;1.20;99.90
21393;DHT22;10857;52.228;21.026;2023-12-07T15:11:55;1.30;99.90
21393;DHT22;10857;52.228;21.026;2023-12-07T15:14:23;1.20;99.90
21393;DHT22;10857;52.228;21.026;2023-12-07T15:17:04;1.20;99.90
21393;DHT22;10857;52.228;21.026;2023-12-07T15:19:33;1.20;99.90
21393;DHT22;10857;52.228;21.026;2023-12-07T15:22:01;1.30;99.90
21393;DHT22;10857;52.228;21.026;2023-12-07T15:24:28;1.10;99.90
21393;DHT22;10857;52.228;21.026;2023-12-07T15:27:06;1.10;99.90
21393;DHT22;10857;52.228;21.026;2023-12-07T15:29:34;1.10;99.90
21393;DHT22;10857;52.228;21.026;2023-12-07T15:32:03;1.00;99.90
21393;DHT22;10857;52.228;21.026;2023-12-07T15:34:30;1.10;99.90
21393;DHT22;10857;52.228;21.026;2023-12-07T15:37:07;1.10;99.90
21393;DHT22;10857;52.228;21.026;2023-12-07T15:39:34;1.20;99.90
21393;DHT22;10857;52.228;21.026;2023-12-07T15:42:01;1.20;99.90
21393;DHT22;10857;52.228;21.026;2023-12-07T15:44:29;1.20;99.90
21393;DHT22;10857;52.228;21.026;2023-12-07T15:46:58;1.20;99.90
21393;DHT22;10857;52.228;21.026;2023-12-07T15:49:26;1.10;99.90